createdAt,value
2022-12-17T00:01:56.923Z,9.80
2022-12-17T00:04:49.055Z,8.57
2022-12-17T00:07:34.990Z,8.93
2022-12-17T00:10:27.069Z,8.93
2022-12-17T00:13:12.955Z,11.05
2022-12-17T00:16:05.101Z,9.02
2022-12-17T00:18:57.810Z,9.50
2022-12-17T00:21:50.077Z,9.00
2022-12-17T00:24:36.031Z,8.95
2022-12-17T00:27:28.078Z,9.50
2022-12-17T00:30:14.135Z,10.43
2022-12-17T00:33:06.097Z,9.52
2022-12-17T00:35:52.080Z,10.80
2022-12-17T00:38:45.052Z,9.43
2022-12-17T00:41:30.884Z,9.77
2022-12-17T00:44:23.073Z,8.93
2022-12-17T00:47:09.333Z,10.30
2022-12-17T00:50:02.070Z,10.38
2022-12-17T00:52:47.993Z,9.10
2022-12-17T00:55:40.239Z,9.93
2022-12-17T00:58:26.152Z,7.70
2022-12-17T01:01:19.190Z,8.95
2022-12-17T01:04:04.915Z,8.85
2022-12-17T01:06:57.087Z,8.95
2022-12-17T01:09:42.986Z,8.50
2022-12-17T01:12:35.077Z,7.93
2022-12-17T01:15:21.015Z,7.10
2022-12-17T01:18:14.110Z,8.35
2022-12-17T01:21:00.098Z,7.88
2022-12-17T01:23:52.062Z,8.35
2022-12-17T01:26:38.037Z,7.95
2022-12-17T01:29:31.072Z,8.48
2022-12-17T01:32:16.926Z,6.97
2022-12-17T01:35:09.069Z,7.72
2022-12-17T01:37:54.999Z,7.00
2022-12-17T01:40:47.083Z,7.70
2022-12-17T01:43:33.405Z,7.13
2022-12-17T01:46:26.078Z,6.95
2022-12-17T01:49:21.206Z,7.15
2022-12-17T01:52:07.854Z,6.43
2022-12-17T01:55:06.203Z,6.93
2022-12-17T01:57:58.766Z,6.90
2022-12-17T02:00:51.255Z,6.70
2022-12-17T02:03:38.126Z,8.75
2022-12-17T02:06:50.097Z,6.63
2022-12-17T02:09:49.043Z,6.55
2022-12-17T02:12:50.077Z,6.55
2022-12-17T02:15:40.125Z,7.22
2022-12-17T02:18:43.165Z,6.40
2022-12-17T02:21:37.005Z,6.05
2022-12-17T02:24:40.082Z,6.38
2022-12-17T02:27:27.992Z,6.45
2022-12-17T02:30:21.095Z,4.85
2022-12-17T02:33:07.244Z,6.35
2022-12-17T02:36:02.077Z,6.05
2022-12-17T02:38:49.091Z,5.90
2022-12-17T02:41:47.081Z,6.43
2022-12-17T02:44:34.213Z,6.55
2022-12-17T02:47:29.076Z,6.25
2022-12-17T02:50:15.041Z,6.40
2022-12-17T02:53:09.082Z,8.18
2022-12-17T02:55:55.469Z,7.20
2022-12-17T02:58:48.080Z,7.53
2022-12-17T03:01:34.063Z,7.55
2022-12-17T03:04:26.086Z,6.78
2022-12-17T03:07:11.984Z,6.95
2022-12-17T03:10:04.108Z,6.70
2022-12-17T03:12:50.103Z,6.68
2022-12-17T03:15:43.195Z,6.90
2022-12-17T03:18:35.639Z,6.43
2022-12-17T03:21:28.081Z,6.18
2022-12-17T03:24:13.894Z,6.88
2022-12-17T03:27:06.091Z,6.93
2022-12-17T03:29:51.993Z,8.05
2022-12-17T03:32:44.121Z,8.18
2022-12-17T03:35:30.071Z,7.90
2022-12-17T03:38:23.079Z,8.05
2022-12-17T03:41:11.697Z,6.97
2022-12-17T03:46:50.093Z,7.32
2022-12-17T03:49:42.153Z,7.10
2022-12-17T03:52:34.231Z,6.80
2022-12-17T03:55:20.100Z,7.38
2022-12-17T03:58:13.251Z,6.40
2022-12-17T04:00:59.291Z,6.97
2022-12-17T04:03:52.248Z,8.23
2022-12-17T04:06:37.916Z,7.38
2022-12-17T04:09:30.264Z,7.63
2022-12-17T04:12:16.246Z,7.55
2022-12-17T04:15:08.116Z,8.32
2022-12-17T04:18:01.079Z,7.15
2022-12-17T04:20:53.114Z,8.23
2022-12-17T04:23:39.245Z,7.85
2022-12-17T04:26:39.085Z,8.23
2022-12-17T04:29:24.965Z,7.70
2022-12-17T04:32:17.104Z,6.97
2022-12-17T04:35:03.087Z,6.47
2022-12-17T04:37:55.109Z,7.68
2022-12-17T04:40:41.039Z,8.20
2022-12-17T04:43:34.417Z,8.35
2022-12-17T04:46:20.642Z,7.72
2022-12-17T04:49:13.140Z,7.75
2022-12-17T04:51:59.051Z,7.13
2022-12-17T04:54:51.147Z,8.40
2022-12-17T04:57:37.058Z,8.15
2022-12-17T05:00:29.351Z,7.82
2022-12-17T05:03:15.326Z,7.18
2022-12-17T05:06:08.091Z,7.95
2022-12-17T05:08:54.079Z,9.18
2022-12-17T05:11:46.089Z,7.03
2022-12-17T05:14:32.015Z,7.90
2022-12-17T05:17:24.098Z,7.78
2022-12-17T05:20:16.962Z,7.57
2022-12-17T05:23:09.098Z,8.13
2022-12-17T05:25:55.076Z,7.65
2022-12-17T05:29:02.117Z,8.85
2022-12-17T05:31:54.853Z,9.25
2022-12-17T05:34:47.124Z,9.02
2022-12-17T05:37:33.002Z,9.68
2022-12-17T05:40:25.126Z,10.43
2022-12-17T05:43:18.274Z,11.10
2022-12-17T05:46:11.177Z,10.38
2022-12-17T05:48:57.268Z,7.80
2022-12-17T05:51:50.098Z,9.50
2022-12-17T05:54:43.242Z,8.40
2022-12-17T05:57:29.198Z,9.70
2022-12-17T06:00:22.246Z,8.35
2022-12-17T06:03:08.173Z,10.10
2022-12-17T06:06:00.244Z,10.38
2022-12-17T06:08:46.256Z,9.80
2022-12-17T06:11:38.148Z,9.93
2022-12-17T06:14:24.172Z,11.05
2022-12-17T06:17:17.098Z,10.40
2022-12-17T06:20:09.023Z,10.90
2022-12-17T06:23:01.229Z,11.27
2022-12-17T06:25:47.123Z,11.32
2022-12-17T06:28:39.099Z,11.13
2022-12-17T06:31:25.329Z,10.80
2022-12-17T06:34:17.126Z,12.13
2022-12-17T06:37:04.243Z,11.70
2022-12-17T06:39:56.127Z,11.10
2022-12-17T06:42:42.356Z,11.65
2022-12-17T06:45:35.116Z,9.70
2022-12-17T06:48:24.644Z,10.77
2022-12-17T06:51:19.142Z,10.75
2022-12-17T06:54:07.817Z,8.38
2022-12-17T06:59:46.010Z,9.70
2022-12-17T07:02:38.183Z,11.27
2022-12-17T07:05:27.107Z,10.32
2022-12-17T07:08:26.115Z,10.63
2022-12-17T07:11:12.166Z,10.30
2022-12-17T07:14:05.294Z,8.90
2022-12-17T07:16:51.297Z,10.25
2022-12-17T07:19:50.135Z,11.20
2022-12-17T07:22:36.023Z,8.13
2022-12-17T07:25:28.122Z,10.88
2022-12-17T07:28:14.666Z,10.13
2022-12-17T07:31:07.137Z,11.07
2022-12-17T07:33:53.293Z,10.95
2022-12-17T07:36:46.152Z,11.30
2022-12-17T07:39:32.030Z,11.65
2022-12-17T07:42:24.109Z,12.15
2022-12-17T07:45:10.174Z,17.52
2022-12-17T07:48:03.132Z,14.15
2022-12-17T07:50:49.139Z,12.30
2022-12-17T07:53:41.123Z,12.63
2022-12-17T07:56:27.010Z,15.30
2022-12-17T07:59:19.129Z,15.65
2022-12-17T08:02:12.493Z,14.90
2022-12-17T08:04:58.572Z,14.43
2022-12-17T08:07:51.267Z,13.55
2022-12-17T08:10:43.992Z,14.50
2022-12-17T08:13:37.449Z,14.38
2022-12-17T08:16:23.895Z,15.77
2022-12-17T08:19:22.143Z,14.35
2022-12-17T08:22:12.809Z,13.55
2022-12-17T08:25:05.202Z,10.55
2022-12-17T08:27:50.926Z,13.63
2022-12-17T08:30:43.273Z,13.82
2022-12-17T08:33:29.313Z,14.45
2022-12-17T08:36:23.143Z,13.80
2022-12-17T08:39:09.069Z,15.30
2022-12-17T08:42:04.324Z,14.25
2022-12-17T08:44:50.687Z,14.43
2022-12-17T08:47:43.263Z,13.98
2022-12-17T08:50:29.125Z,16.48
2022-12-17T08:53:33.271Z,17.20
2022-12-17T08:56:20.773Z,12.45
2022-12-17T08:59:13.138Z,14.32
2022-12-17T09:01:59.382Z,14.10
2022-12-17T09:04:52.135Z,20.63
2022-12-17T09:07:38.162Z,17.67
2022-12-17T09:10:31.137Z,15.65
2022-12-17T09:13:20.572Z,15.52
2022-12-17T09:16:17.211Z,15.50
2022-12-17T09:19:10.182Z,15.43
2022-12-17T09:22:03.155Z,17.70
2022-12-17T09:24:49.384Z,16.58
2022-12-17T09:27:42.168Z,17.75
2022-12-17T09:30:28.604Z,16.63
2022-12-17T09:33:21.285Z,10.77
2022-12-17T09:36:07.218Z,18.35
2022-12-17T09:39:00.174Z,17.20
2022-12-17T09:42:00.175Z,15.57
2022-12-17T09:44:48.521Z,16.13
2022-12-17T09:48:13.149Z,17.42
2022-12-17T09:50:59.328Z,17.40
2022-12-17T09:53:58.347Z,17.40
2022-12-17T09:56:45.248Z,18.75
2022-12-17T09:59:47.294Z,25.40
2022-12-17T10:02:36.459Z,26.15
2022-12-17T10:05:32.140Z,21.10
2022-12-17T10:08:18.766Z,23.23
2022-12-17T10:11:12.178Z,22.88
2022-12-17T10:13:58.028Z,24.05
2022-12-17T10:16:54.142Z,20.45
2022-12-17T10:19:47.021Z,17.98
2022-12-17T10:22:40.157Z,20.98
2022-12-17T10:25:27.246Z,22.92
2022-12-17T10:28:19.221Z,21.63
2022-12-17T10:31:07.115Z,23.13
2022-12-17T10:34:03.190Z,24.40
2022-12-17T10:36:49.182Z,23.88
2022-12-17T10:39:43.307Z,27.23
2022-12-17T10:42:58.029Z,28.10
2022-12-17T10:45:55.241Z,26.52
2022-12-17T10:48:42.303Z,27.35
2022-12-17T10:51:46.183Z,29.17
2022-12-17T10:54:49.464Z,28.23
2022-12-17T10:57:49.162Z,27.65
2022-12-17T11:00:49.067Z,34.40
2022-12-17T11:03:49.332Z,29.10
2022-12-17T11:06:42.442Z,32.10
2022-12-17T11:09:41.166Z,32.50
2022-12-17T11:12:31.168Z,32.00
2022-12-17T11:15:26.176Z,26.92
2022-12-17T11:18:18.823Z,32.58
2022-12-17T11:21:24.160Z,32.63
2022-12-17T11:24:11.177Z,33.63
2022-12-17T11:27:05.177Z,34.75
2022-12-17T11:29:51.191Z,33.80
2022-12-17T11:32:43.166Z,35.78
2022-12-17T11:35:40.243Z,33.15
2022-12-17T11:38:35.544Z,35.22
2022-12-17T11:41:27.275Z,38.25
2022-12-17T11:44:26.194Z,36.80
2022-12-17T11:47:20.975Z,39.90
2022-12-17T11:50:13.229Z,38.70
2022-12-17T11:53:11.037Z,36.67
2022-12-17T11:56:16.165Z,35.13
2022-12-17T11:59:09.588Z,40.25
2022-12-17T12:02:07.312Z,37.22
2022-12-17T12:05:12.632Z,40.60
2022-12-17T12:08:17.178Z,40.78
2022-12-17T12:11:05.734Z,42.00
2022-12-17T12:14:07.204Z,43.40
2022-12-17T12:16:58.699Z,38.53
2022-12-17T12:19:54.181Z,48.28
2022-12-17T12:22:46.221Z,48.30
2022-12-17T12:25:41.190Z,40.63
2022-12-17T12:28:42.070Z,42.80
2022-12-17T12:31:53.237Z,43.63
2022-12-17T12:34:49.568Z,42.83
2022-12-17T12:37:48.194Z,38.90
2022-12-17T12:40:51.043Z,32.42
2022-12-17T12:43:48.187Z,42.15
2022-12-17T12:47:00.302Z,39.30
2022-12-17T12:49:54.894Z,40.25
2022-12-17T12:52:49.372Z,39.00
2022-12-17T12:55:35.585Z,40.13
2022-12-17T12:58:29.342Z,45.15
2022-12-17T13:01:15.365Z,45.17
2022-12-17T13:04:10.338Z,43.28
2022-12-17T13:06:43.622Z,44.95
2022-12-17T13:09:23.332Z,46.05
2022-12-17T13:11:54.396Z,47.00
2022-12-17T13:14:31.319Z,47.22
2022-12-17T13:17:02.285Z,49.15
2022-12-17T13:19:54.349Z,40.58
2022-12-17T13:22:24.259Z,44.53
2022-12-17T13:24:52.774Z,42.90
2022-12-17T13:27:39.197Z,40.60
2022-12-17T13:30:18.746Z,43.28
2022-12-17T13:33:11.351Z,43.13
2022-12-17T13:35:59.490Z,43.95
2022-12-17T13:38:52.194Z,41.50
2022-12-17T13:41:26.234Z,29.88
2022-12-17T13:43:56.957Z,41.05
2022-12-17T13:46:30.395Z,44.05
2022-12-17T13:49:01.834Z,43.90
2022-12-17T13:51:37.349Z,53.03
2022-12-17T13:54:05.055Z,43.55
2022-12-17T13:56:33.567Z,43.47
2022-12-17T13:59:11.191Z,41.85
2022-12-17T14:01:46.429Z,41.83
2022-12-17T14:04:31.235Z,43.03
2022-12-17T14:06:59.762Z,39.78
2022-12-17T14:09:39.224Z,44.05
2022-12-17T14:12:22.370Z,41.92
2022-12-17T14:15:07.347Z,38.00
2022-12-17T14:17:45.801Z,35.35
2022-12-17T14:20:39.218Z,44.42
2022-12-17T14:23:20.215Z,41.85
2022-12-17T14:25:48.957Z,45.17
2022-12-17T14:28:39.694Z,42.22
2022-12-17T14:31:27.967Z,39.85
2022-12-17T14:34:14.220Z,43.13
2022-12-17T14:36:42.665Z,44.80
2022-12-17T14:39:27.223Z,43.08
2022-12-17T14:42:13.894Z,42.05
2022-12-17T14:44:58.349Z,43.15
2022-12-17T14:47:26.884Z,38.45
2022-12-17T14:50:02.214Z,38.80
2022-12-17T14:52:46.208Z,39.92
2022-12-17T14:55:29.236Z,43.83
2022-12-17T14:58:07.900Z,44.05
2022-12-17T15:00:44.345Z,40.70
2022-12-17T15:03:13.833Z,41.72
2022-12-17T15:05:41.010Z,40.97
2022-12-17T15:08:14.404Z,43.85
2022-12-17T15:10:41.680Z,43.38
2022-12-17T15:13:08.760Z,41.33
2022-12-17T15:15:42.273Z,42.38
2022-12-17T15:18:16.298Z,46.50
2022-12-17T15:20:56.339Z,44.83
2022-12-17T15:23:23.881Z,40.45
2022-12-17T15:28:25.230Z,42.10
2022-12-17T15:30:52.525Z,38.85
2022-12-17T15:33:26.388Z,40.53
2022-12-17T15:35:53.489Z,39.60
2022-12-17T15:38:20.596Z,42.25
2022-12-17T15:40:54.252Z,40.97
2022-12-17T15:43:21.387Z,40.28
2022-12-17T15:45:56.254Z,42.42
2022-12-17T15:48:23.420Z,42.85
2022-12-17T15:50:57.298Z,35.17
2022-12-17T15:53:24.368Z,39.80
2022-12-17T15:55:51.502Z,44.25
2022-12-17T15:58:25.253Z,33.30
2022-12-17T16:00:52.317Z,36.55
2022-12-17T16:03:26.334Z,38.67
2022-12-17T16:05:53.500Z,39.97
2022-12-17T16:08:27.354Z,37.28
2022-12-17T16:10:54.429Z,37.75
2022-12-17T16:13:21.565Z,37.25
2022-12-17T16:16:04.548Z,39.05
2022-12-17T16:18:39.039Z,36.25
2022-12-17T16:21:19.367Z,33.72
2022-12-17T16:23:46.657Z,35.83
2022-12-17T16:26:13.746Z,34.53
2022-12-17T16:28:50.335Z,35.08
2022-12-17T16:31:17.571Z,34.67
2022-12-17T16:33:52.391Z,36.97
2022-12-17T16:36:20.164Z,32.15
2022-12-17T16:38:48.727Z,33.00
2022-12-17T16:41:23.391Z,33.47
2022-12-17T16:43:50.787Z,32.67
2022-12-17T16:46:38.452Z,32.38
2022-12-17T16:49:10.096Z,34.42
2022-12-17T16:51:37.325Z,36.88
2022-12-17T16:54:15.233Z,36.33
2022-12-17T16:56:42.917Z,36.25
2022-12-17T16:59:17.406Z,35.72
2022-12-17T17:01:46.184Z,36.42
2022-12-17T17:04:13.940Z,34.67
2022-12-17T17:06:48.251Z,35.28
2022-12-17T17:09:16.012Z,37.45
2022-12-17T17:11:52.075Z,37.47
2022-12-17T17:14:19.954Z,37.08
2022-12-17T17:16:53.388Z,34.63
2022-12-17T17:19:27.304Z,35.80
2022-12-17T17:22:01.371Z,34.55
2022-12-17T17:24:28.516Z,36.53
2022-12-17T17:26:56.146Z,35.40
2022-12-17T17:32:13.294Z,29.35
2022-12-17T17:34:47.446Z,34.50
2022-12-17T17:37:14.613Z,32.78
2022-12-17T17:39:41.912Z,33.30
2022-12-17T17:42:15.287Z,32.33
2022-12-17T17:44:42.591Z,30.88
2022-12-17T17:47:09.759Z,32.47
2022-12-17T17:49:43.328Z,32.17
2022-12-17T17:52:11.348Z,34.65
2022-12-17T17:54:46.265Z,49.13
2022-12-17T17:57:13.461Z,33.17
2022-12-17T17:59:47.290Z,34.33
2022-12-17T18:02:14.617Z,31.73
2022-12-17T18:04:48.514Z,36.17
2022-12-17T18:07:25.349Z,35.40
2022-12-17T18:09:59.257Z,29.98
2022-12-17T18:12:44.993Z,31.85
2022-12-17T18:15:18.834Z,28.50
2022-12-17T18:17:47.757Z,28.45
2022-12-17T18:20:28.250Z,33.95
2022-12-17T18:23:02.403Z,28.95
2022-12-17T18:25:37.881Z,29.48
2022-12-17T18:28:05.255Z,27.40
2022-12-17T18:30:39.434Z,30.20
2022-12-17T18:33:06.519Z,34.10
2022-12-17T18:35:33.601Z,31.55
2022-12-17T18:38:07.264Z,28.10
2022-12-17T18:40:36.310Z,28.67
2022-12-17T18:43:28.307Z,26.65
2022-12-17T18:45:55.394Z,29.58
2022-12-17T18:48:24.830Z,29.25
2022-12-17T18:51:05.620Z,28.75
2022-12-17T18:53:33.544Z,29.20
2022-12-17T18:56:19.359Z,28.27
2022-12-17T18:58:54.320Z,30.70
2022-12-17T19:01:29.459Z,34.58
2022-12-17T19:03:56.872Z,28.60
2022-12-17T19:06:25.186Z,30.00
2022-12-17T19:08:59.265Z,28.63
2022-12-17T19:11:26.405Z,28.02
2022-12-17T19:14:00.335Z,25.05
2022-12-17T19:16:29.006Z,29.85
2022-12-17T19:19:17.440Z,30.48
2022-12-17T19:21:44.550Z,28.02
2022-12-17T19:24:16.254Z,30.15
2022-12-17T19:26:50.278Z,28.67
2022-12-17T19:29:18.134Z,24.40
2022-12-17T19:31:52.380Z,28.52
2022-12-17T19:34:19.694Z,29.00
2022-12-17T19:36:47.204Z,27.23
2022-12-17T19:39:22.286Z,28.88
2022-12-17T19:41:51.031Z,29.83
2022-12-17T19:44:26.341Z,30.15
2022-12-17T19:46:53.810Z,28.25
2022-12-17T19:49:20.905Z,26.85
2022-12-17T19:51:54.447Z,27.45
2022-12-17T19:54:24.452Z,26.38
2022-12-17T19:56:51.531Z,28.60
2022-12-17T19:59:25.347Z,26.25
2022-12-17T20:01:52.552Z,30.17
2022-12-17T20:04:19.803Z,28.70
2022-12-17T20:06:53.300Z,28.52
2022-12-17T20:09:20.414Z,30.08
2022-12-17T20:11:54.430Z,27.42
2022-12-17T20:14:23.904Z,27.83
2022-12-17T20:17:02.327Z,25.58
2022-12-17T20:19:43.397Z,30.23
2022-12-17T20:22:17.420Z,29.38
2022-12-17T20:24:44.652Z,28.05
2022-12-17T20:27:11.759Z,29.65
2022-12-17T20:29:45.297Z,28.23
2022-12-17T20:32:12.441Z,27.50
2022-12-17T20:34:39.570Z,30.13
2022-12-17T20:37:13.278Z,29.80
2022-12-17T20:39:47.323Z,24.25
2022-12-17T20:42:14.401Z,27.52
2022-12-17T20:44:42.055Z,27.02
2022-12-17T20:47:15.290Z,26.00
2022-12-17T20:49:42.465Z,25.67
2022-12-17T20:52:16.325Z,24.15
2022-12-17T20:54:43.719Z,28.58
2022-12-17T20:57:17.435Z,29.52
2022-12-17T20:59:44.709Z,28.23
2022-12-17T21:02:12.000Z,26.63
2022-12-17T21:04:45.299Z,26.52
2022-12-17T21:07:12.440Z,24.98
2022-12-17T21:09:46.286Z,26.40
2022-12-17T21:12:13.700Z,28.23
2022-12-17T21:14:47.441Z,27.40
2022-12-17T21:17:14.971Z,30.08
2022-12-17T21:19:56.030Z,27.48
2022-12-17T21:22:30.316Z,27.42
2022-12-17T21:25:04.537Z,24.83
2022-12-17T21:27:31.609Z,27.42
2022-12-17T21:29:58.714Z,29.00
2022-12-17T21:35:01.206Z,29.38
2022-12-17T21:37:35.451Z,31.50
2022-12-17T21:40:02.551Z,28.42
2022-12-17T21:42:55.439Z,29.38
2022-12-17T21:45:22.608Z,29.60
2022-12-17T21:47:50.017Z,28.48
2022-12-17T21:50:23.316Z,30.58
2022-12-17T21:52:50.819Z,32.50
2022-12-17T21:55:24.286Z,31.67
2022-12-17T21:57:51.375Z,31.42
2022-12-17T22:00:25.451Z,31.70
2022-12-17T22:02:52.698Z,31.70
2022-12-17T22:05:19.947Z,31.83
2022-12-17T22:07:54.288Z,32.17
2022-12-17T22:10:34.888Z,34.25
2022-12-17T22:13:42.524Z,37.63
2022-12-17T22:16:09.879Z,38.50
2022-12-17T22:18:49.307Z,37.80
2022-12-17T22:21:24.284Z,33.83
2022-12-17T22:23:58.471Z,38.20
2022-12-17T22:26:25.547Z,33.40
2022-12-17T22:28:52.709Z,34.17
2022-12-17T22:31:46.319Z,35.85
2022-12-17T22:35:40.627Z,35.17
2022-12-17T22:39:47.171Z,34.13
2022-12-17T22:44:34.737Z,34.13
2022-12-17T22:44:43.836Z,32.60
2022-12-17T22:46:05.489Z,37.15
2022-12-17T22:48:33.889Z,33.47
2022-12-17T22:51:26.304Z,37.05
2022-12-17T22:54:04.300Z,35.03
2022-12-17T22:57:07.802Z,31.85
2022-12-17T22:59:25.677Z,35.38
2022-12-17T23:01:59.428Z,36.35
2022-12-17T23:04:26.600Z,32.55
2022-12-17T23:07:00.446Z,36.40
2022-12-17T23:09:27.556Z,35.15
2022-12-17T23:11:54.637Z,33.25
2022-12-17T23:14:28.327Z,29.33
2022-12-17T23:17:02.311Z,33.25
2022-12-17T23:19:43.506Z,33.80
2022-12-17T23:22:10.579Z,33.10
2022-12-17T23:24:37.729Z,31.48
2022-12-17T23:27:11.335Z,30.67
2022-12-17T23:29:38.486Z,29.00
2022-12-17T23:32:12.559Z,29.60
2022-12-17T23:34:39.722Z,29.05
2022-12-17T23:37:06.831Z,30.48
2022-12-17T23:39:40.426Z,30.25
2022-12-17T23:42:07.599Z,23.20
2022-12-17T23:44:34.683Z,31.08
2022-12-17T23:47:08.333Z,28.75
2022-12-17T23:49:35.447Z,29.27
2022-12-17T23:52:09.499Z,28.40
2022-12-17T23:54:36.587Z,30.35
2022-12-17T23:57:03.712Z,30.27
2022-12-17T23:59:37.349Z,34.28
